createdAt,value
2018-02-12T00:00:33.758Z,97491.67
2018-02-12T00:03:02.119Z,97487.22
2018-02-12T00:05:30.423Z,97484.61
2018-02-12T00:07:59.487Z,97497.30
2018-02-12T00:10:27.828Z,97500.09
2018-02-12T00:12:56.135Z,97510.91
2018-02-12T00:15:24.454Z,97513.49
2018-02-12T00:17:52.823Z,97511.84
2018-02-12T00:20:21.904Z,97520.12
2018-02-12T00:22:50.207Z,97518.59
2018-02-12T00:25:18.546Z,97520.56
2018-02-12T00:27:46.863Z,97507.44
2018-02-12T00:30:15.162Z,97515.73
2018-02-12T00:32:43.611Z,97510.09
2018-02-12T00:35:11.923Z,97507.87
2018-02-12T00:37:40.219Z,97488.39
2018-02-12T00:40:08.580Z,97474.38
2018-02-12T00:42:36.891Z,97477.70
2018-02-12T00:45:05.211Z,97492.13
2018-02-12T00:47:33.567Z,97492.25
2018-02-12T00:50:02.308Z,97499.12
2018-02-12T00:52:30.609Z,97490.81
2018-02-12T00:54:59.801Z,97502.05
2018-02-12T00:57:28.111Z,97508.58
2018-02-12T00:59:57.192Z,97515.80
2018-02-12T01:02:25.523Z,97521.80
2018-02-12T01:04:53.824Z,97520.78
2018-02-12T01:07:22.192Z,97526.59
2018-02-12T01:09:50.495Z,97533.02
2018-02-12T01:12:18.804Z,97537.44
2018-02-12T01:14:47.915Z,97533.28
2018-02-12T01:17:16.228Z,97527.87
2018-02-12T01:19:44.538Z,97529.88
2018-02-12T01:22:12.899Z,97525.14
2018-02-12T01:24:41.203Z,97529.95
2018-02-12T01:27:10.271Z,97536.63
2018-02-12T01:29:38.639Z,97539.58
2018-02-12T01:32:07.448Z,97549.66
2018-02-12T01:34:35.771Z,97554.87
2018-02-12T01:37:04.102Z,97555.09
2018-02-12T01:39:32.419Z,97559.66
2018-02-12T01:42:00.727Z,97555.36
2018-02-12T01:44:29.539Z,97554.77
2018-02-12T01:46:57.839Z,97553.70
2018-02-12T01:49:26.163Z,97547.88
2018-02-12T01:51:54.511Z,97552.64
2018-02-12T01:54:23.571Z,97555.55
2018-02-12T01:56:51.879Z,97554.59
2018-02-12T01:59:20.264Z,97562.80
2018-02-12T02:01:48.579Z,97557.60
2018-02-12T02:04:16.955Z,97558.56
2018-02-12T02:06:45.306Z,97560.44
2018-02-12T02:09:13.635Z,97559.02
2018-02-12T02:11:41.953Z,97561.89
2018-02-12T02:14:10.323Z,97568.33
2018-02-12T02:16:38.643Z,97568.70
2018-02-12T02:19:06.943Z,97573.97
2018-02-12T02:21:35.308Z,97578.06
2018-02-12T02:24:04.323Z,97579.66
2018-02-12T02:26:32.626Z,97579.95
2018-02-12T02:29:01.759Z,97581.52
2018-02-12T02:31:30.157Z,97577.49
2018-02-12T02:33:59.261Z,97573.25
2018-02-12T02:36:27.731Z,97575.40
2018-02-12T02:38:56.404Z,97585.47
2018-02-12T02:41:24.713Z,97583.88
2018-02-12T02:43:53.344Z,97586.22
2018-02-12T02:46:21.651Z,97586.25
2018-02-12T02:48:49.955Z,97589.38
2018-02-12T02:51:18.307Z,97589.25
2018-02-12T02:53:46.629Z,97577.91
2018-02-12T02:56:14.996Z,97578.91
2018-02-12T02:58:43.355Z,97577.20
2018-02-12T03:01:11.945Z,97586.55
2018-02-12T03:03:41.306Z,97580.64
2018-02-12T03:06:10.112Z,97572.69
2018-02-12T03:08:38.721Z,97571.27
2018-02-12T03:11:07.378Z,97579.30
2018-02-12T03:13:36.077Z,97577.47
2018-02-12T03:16:04.615Z,97576.16
2018-02-12T03:18:39.236Z,97584.54
2018-02-12T03:21:07.798Z,97582.37
2018-02-12T03:23:36.111Z,97586.66
2018-02-12T03:26:04.467Z,97592.83
2018-02-12T03:28:32.771Z,97593.61
2018-02-12T03:31:01.768Z,97598.47
2018-02-12T03:33:30.099Z,97600.05
2018-02-12T03:35:58.401Z,97596.34
2018-02-12T03:38:26.708Z,97597.77
2018-02-12T03:40:55.081Z,97598.84
2018-02-12T03:43:23.384Z,97596.17
2018-02-12T03:45:52.668Z,97602.61
2018-02-12T03:48:21.213Z,97601.03
2018-02-12T03:50:49.534Z,97612.90
2018-02-12T03:53:17.849Z,97605.55
2018-02-12T03:55:46.401Z,97603.10
2018-02-12T03:58:14.707Z,97610.90
2018-02-12T04:00:43.052Z,97618.39
2018-02-12T04:03:11.460Z,97622.85
2018-02-12T04:05:40.528Z,97624.89
2018-02-12T04:08:08.834Z,97624.87
2018-02-12T04:10:37.595Z,97635.56
2018-02-12T04:13:05.899Z,97632.28
2018-02-12T04:15:34.301Z,97635.39
2018-02-12T04:18:02.674Z,97638.39
2018-02-12T04:20:31.751Z,97640.63
2018-02-12T04:23:00.285Z,97633.39
2018-02-12T04:25:28.823Z,97633.44
2018-02-12T04:27:57.140Z,97625.78
2018-02-12T04:30:25.445Z,97627.06
2018-02-12T04:32:53.952Z,97632.58
2018-02-12T04:35:23.036Z,97631.89
2018-02-12T04:37:51.495Z,97631.87
2018-02-12T04:40:20.488Z,97628.88
2018-02-12T04:42:48.795Z,97629.02
2018-02-12T04:45:17.108Z,97629.16
2018-02-12T04:47:45.463Z,97624.94
2018-02-12T04:50:14.540Z,97620.96
2018-02-12T04:52:42.844Z,97618.38
2018-02-12T04:55:11.981Z,97619.53
2018-02-12T04:57:40.296Z,97625.55
2018-02-12T05:00:08.611Z,97634.89
2018-02-12T05:02:37.023Z,97628.55
2018-02-12T05:05:05.345Z,97634.28
2018-02-12T05:07:33.643Z,97635.86
2018-02-12T05:10:02.008Z,97636.94
2018-02-12T05:12:30.315Z,97641.16
2018-02-12T05:14:58.629Z,97640.39
2018-02-12T05:17:27.004Z,97646.55
2018-02-12T05:19:55.307Z,97648.75
2018-02-12T05:22:24.259Z,97652.38
2018-02-12T05:24:53.671Z,97654.27
2018-02-12T05:27:21.975Z,97658.59
2018-02-12T05:29:50.276Z,97656.57
2018-02-12T05:32:18.618Z,97667.00
2018-02-12T05:34:46.940Z,97659.84
2018-02-12T05:37:15.247Z,97665.99
2018-02-12T05:39:43.630Z,97669.88
2018-02-12T05:42:11.982Z,97666.78
2018-02-12T05:44:40.335Z,97676.34
2018-02-12T05:47:09.496Z,97675.09
2018-02-12T05:49:37.804Z,97675.25
2018-02-12T05:52:06.207Z,97682.38
2018-02-12T05:54:34.543Z,97682.38
2018-02-12T05:57:02.852Z,97683.13
2018-02-12T05:59:31.224Z,97680.31
2018-02-12T06:02:00.299Z,97686.14
2018-02-12T06:04:28.611Z,97691.81
2018-02-12T06:06:56.995Z,97697.81
2018-02-12T06:09:25.352Z,97705.20
2018-02-12T06:11:54.439Z,97703.89
2018-02-12T06:14:23.551Z,97715.55
2018-02-12T06:16:52.619Z,97720.23
2018-02-12T06:19:20.932Z,97726.95
2018-02-12T06:21:49.285Z,97731.75
2018-02-12T06:24:17.598Z,97737.03
2018-02-12T06:26:45.912Z,97740.17
2018-02-12T06:29:14.266Z,97743.42
2018-02-12T06:31:42.571Z,97757.21
2018-02-12T06:34:10.876Z,97757.14
2018-02-12T06:36:39.208Z,97768.81
2018-02-12T06:39:07.511Z,97782.48
2018-02-12T06:41:35.851Z,97787.03
2018-02-12T06:44:04.387Z,97784.92
2018-02-12T06:46:32.691Z,97789.47
2018-02-12T06:49:01.013Z,97787.94
2018-02-12T06:51:29.368Z,97782.29
2018-02-12T06:53:57.783Z,97786.56
2018-02-12T06:56:26.147Z,97795.36
2018-02-12T06:58:54.455Z,97802.61
2018-02-12T07:01:22.825Z,97803.73
2018-02-12T07:03:51.168Z,97801.57
2018-02-12T07:06:19.488Z,97811.25
2018-02-12T07:08:47.803Z,97811.13
2018-02-12T07:11:16.144Z,97808.34
2018-02-12T07:13:44.461Z,97813.67
2018-02-12T07:16:12.784Z,97817.75
2018-02-12T07:18:41.133Z,97815.80
2018-02-12T07:21:09.432Z,97816.66
2018-02-12T07:23:37.755Z,97816.78
2018-02-12T07:26:06.859Z,97816.81
2018-02-12T07:28:35.171Z,97813.63
2018-02-12T07:31:03.487Z,97822.13
2018-02-12T07:33:31.886Z,97825.41
2018-02-12T07:36:00.204Z,97834.55
2018-02-12T07:38:28.516Z,97843.66
2018-02-12T07:40:56.912Z,97847.42
2018-02-12T07:43:25.227Z,97854.80
2018-02-12T07:45:53.531Z,97856.38
2018-02-12T07:48:21.974Z,97861.97
2018-02-12T07:50:50.284Z,97867.86
2018-02-12T07:53:18.596Z,97874.53
2018-02-12T07:55:46.948Z,97871.55
2018-02-12T07:58:15.251Z,97878.36
2018-02-12T08:00:44.320Z,97881.98
2018-02-12T08:03:12.656Z,97885.30
2018-02-12T08:05:40.971Z,97890.17
2018-02-12T08:08:09.281Z,97890.61
2018-02-12T08:10:37.632Z,97891.32
2018-02-12T08:13:05.922Z,97900.84
2018-02-12T08:15:34.992Z,97901.09
2018-02-12T08:18:04.131Z,97901.02
2018-02-12T08:20:32.438Z,97904.25
2018-02-12T08:23:00.748Z,97911.23
2018-02-12T08:25:29.098Z,97912.98
2018-02-12T08:27:57.408Z,97917.63
2018-02-12T08:30:25.711Z,97926.30
2018-02-12T08:32:54.156Z,97936.78
2018-02-12T08:35:22.455Z,97937.91
2018-02-12T08:37:50.747Z,97944.05
2018-02-12T08:40:19.082Z,97945.52
2018-02-12T08:42:47.388Z,97946.84
2018-02-12T08:45:15.688Z,97949.20
2018-02-12T08:47:44.053Z,97956.36
2018-02-12T08:50:13.120Z,97951.45
2018-02-12T08:52:41.424Z,97955.56
2018-02-12T08:55:10.563Z,97963.85
2018-02-12T08:57:38.868Z,97951.85
2018-02-12T09:00:07.166Z,97958.58
2018-02-12T09:02:35.529Z,97960.39
2018-02-12T09:05:03.836Z,97960.16
2018-02-12T09:07:32.159Z,97966.63
2018-02-12T09:10:00.624Z,97973.95
2018-02-12T09:12:28.983Z,97974.77
2018-02-12T09:14:57.299Z,97983.78
2018-02-12T09:17:25.665Z,97978.94
2018-02-12T09:19:53.971Z,97992.72
2018-02-12T09:22:22.284Z,97984.83
2018-02-12T09:24:50.727Z,97993.69
2018-02-12T09:27:19.032Z,97996.20
2018-02-12T09:29:47.340Z,97990.60
2018-02-12T09:32:15.684Z,97999.49
2018-02-12T09:34:43.978Z,97999.92
2018-02-12T09:37:13.075Z,97998.04
2018-02-12T09:39:41.640Z,98001.00
2018-02-12T09:42:09.958Z,98000.62
2018-02-12T09:44:38.258Z,98004.87
2018-02-12T09:47:06.603Z,98006.46
2018-02-12T09:49:34.908Z,98005.48
2018-02-12T09:52:03.215Z,97999.41
2018-02-12T09:54:31.571Z,98009.43
2018-02-12T09:56:59.887Z,98006.23
2018-02-12T09:59:28.960Z,98006.78
2018-02-12T10:01:57.683Z,98010.15
2018-02-12T10:04:25.978Z,98008.72
2018-02-12T10:06:54.295Z,98013.02
2018-02-12T10:09:22.620Z,98012.05
2018-02-12T10:11:50.931Z,98017.95
2018-02-12T10:14:20.208Z,98021.89
2018-02-12T10:16:48.508Z,98023.56
2018-02-12T10:19:16.827Z,98024.30
2018-02-12T10:21:45.957Z,98028.30
2018-02-12T10:24:14.263Z,98042.06
2018-02-12T10:26:42.577Z,98045.77
2018-02-12T10:29:10.908Z,98039.09
2018-02-12T10:31:39.217Z,98045.06
2018-02-12T10:34:07.519Z,98051.41
2018-02-12T10:36:36.627Z,98052.16
2018-02-12T10:39:04.926Z,98046.06
2018-02-12T10:41:33.223Z,98051.10
2018-02-12T10:44:01.552Z,98056.57
2018-02-12T10:46:29.862Z,98055.84
2018-02-12T10:48:58.228Z,98057.95
2018-02-12T10:51:26.543Z,98060.89
2018-02-12T10:53:54.866Z,98063.86
2018-02-12T10:56:23.212Z,98061.73
2018-02-12T10:58:51.519Z,98061.88
2018-02-12T11:01:19.829Z,98059.93
2018-02-12T11:03:48.177Z,98065.50
2018-02-12T11:06:16.476Z,98064.48
2018-02-12T11:08:44.784Z,98060.81
2018-02-12T11:11:13.173Z,98060.27
2018-02-12T11:13:41.479Z,98058.47
2018-02-12T11:16:09.794Z,98069.56
2018-02-12T11:18:38.439Z,98057.82
2018-02-12T11:21:06.768Z,98054.11
2018-02-12T11:23:35.073Z,98058.14
2018-02-12T11:26:03.796Z,98051.73
2018-02-12T11:28:32.096Z,98055.16
2018-02-12T11:31:00.405Z,98054.55
2018-02-12T11:33:28.776Z,98054.97
2018-02-12T11:35:57.088Z,98051.78
2018-02-12T11:38:26.160Z,98053.91
2018-02-12T11:40:54.520Z,98049.77
2018-02-12T11:43:22.838Z,98054.11
2018-02-12T11:45:51.150Z,98052.94
2018-02-12T11:48:19.659Z,98055.45
2018-02-12T11:50:47.979Z,98064.55
2018-02-12T11:53:16.289Z,98067.98
2018-02-12T11:55:44.648Z,98066.01
2018-02-12T11:58:12.952Z,98068.64
2018-02-12T12:00:41.249Z,98064.17
2018-02-12T12:03:09.963Z,98065.59
2018-02-12T12:05:38.263Z,98067.59
2018-02-12T12:08:07.342Z,98065.72
2018-02-12T12:10:36.467Z,98071.53
2018-02-12T12:13:04.840Z,98075.91
2018-02-12T12:15:33.139Z,98066.13
2018-02-12T12:18:01.491Z,98070.02
2018-02-12T12:20:29.800Z,98066.00
2018-02-12T12:22:58.096Z,98063.52
2018-02-12T12:25:26.468Z,98065.89
2018-02-12T12:27:54.776Z,98060.96
2018-02-12T12:30:23.080Z,98058.88
2018-02-12T12:32:51.431Z,98057.76
2018-02-12T12:35:19.727Z,98054.27
2018-02-12T12:37:48.036Z,98052.55
2018-02-12T12:40:16.698Z,98052.01
2018-02-12T12:42:45.016Z,98048.61
2018-02-12T12:45:13.316Z,98053.83
2018-02-12T12:47:41.651Z,98059.29
2018-02-12T12:50:09.956Z,98066.64
2018-02-12T12:52:38.267Z,98061.12
2018-02-12T12:55:06.638Z,98065.90
2018-02-12T12:57:35.708Z,98067.34
2018-02-12T13:00:04.007Z,98061.40
2018-02-12T13:02:32.365Z,98064.91
2018-02-12T13:05:00.676Z,98059.13
2018-02-12T13:07:28.976Z,98059.98
2018-02-12T13:09:57.342Z,98065.27
2018-02-12T13:12:25.655Z,98063.75
2018-02-12T13:14:53.967Z,98063.81
2018-02-12T13:17:22.321Z,98068.34
2018-02-12T13:19:50.627Z,98061.04
2018-02-12T13:22:18.932Z,98064.87
2018-02-12T13:24:47.288Z,98062.81
2018-02-12T13:27:15.609Z,98064.48
2018-02-12T13:29:43.911Z,98061.33
2018-02-12T13:32:12.263Z,98068.78
2018-02-12T13:34:40.560Z,98068.42
2018-02-12T13:37:08.859Z,98070.66
2018-02-12T13:39:37.221Z,98075.80
2018-02-12T13:42:05.554Z,98074.01
2018-02-12T13:44:33.872Z,98073.75
2018-02-12T13:47:02.260Z,98074.92
2018-02-12T13:49:30.562Z,98078.73
2018-02-12T13:51:59.636Z,98066.30
2018-02-12T13:54:27.985Z,98072.56
2018-02-12T13:56:56.303Z,98081.58
2018-02-12T13:59:24.607Z,98078.02
2018-02-12T14:01:53.035Z,98081.92
2018-02-12T14:04:21.331Z,98079.75
2018-02-12T14:06:49.632Z,98079.00
2018-02-12T14:09:18.056Z,98085.00
2018-02-12T14:11:48.108Z,98083.83
2018-02-12T14:14:16.425Z,98085.69
2018-02-12T14:16:45.426Z,98089.34
2018-02-12T14:19:13.735Z,98103.44
2018-02-12T14:21:42.027Z,98105.83
2018-02-12T14:24:10.486Z,98105.91
2018-02-12T14:26:38.776Z,98118.87
2018-02-12T14:29:07.084Z,98119.47
2018-02-12T14:31:36.203Z,98120.94
2018-02-12T14:34:04.504Z,98120.44
2018-02-12T14:36:33.040Z,98123.10
2018-02-12T14:39:01.424Z,98120.87
2018-02-12T14:41:30.507Z,98127.81
2018-02-12T14:43:58.831Z,98135.20
2018-02-12T14:46:27.190Z,98131.83
2018-02-12T14:48:55.501Z,98132.81
2018-02-12T14:51:23.807Z,98136.73
2018-02-12T14:53:52.162Z,98140.92
2018-02-12T14:56:20.520Z,98146.39
2018-02-12T14:58:48.799Z,98154.95
2018-02-12T15:01:17.140Z,98163.55
2018-02-12T15:03:46.205Z,98151.70
2018-02-12T15:06:14.519Z,98156.66
2018-02-12T15:08:42.883Z,98159.21
2018-02-12T15:11:11.231Z,98159.64
2018-02-12T15:13:39.528Z,98162.55
2018-02-12T15:16:08.440Z,98164.81
2018-02-12T15:18:37.508Z,98165.50
2018-02-12T15:21:05.820Z,98162.55
2018-02-12T15:23:34.935Z,98157.86
2018-02-12T15:26:03.240Z,98162.78
2018-02-12T15:28:31.547Z,98163.39
2018-02-12T15:30:59.948Z,98166.43
2018-02-12T15:33:28.618Z,98162.33
2018-02-12T15:35:56.938Z,98165.16
2018-02-12T15:38:25.307Z,98160.72
2018-02-12T15:40:53.603Z,98163.84
2018-02-12T15:43:21.918Z,98163.81
2018-02-12T15:45:50.255Z,98165.17
2018-02-12T15:48:18.579Z,98170.36
2018-02-12T15:50:46.930Z,98177.70
2018-02-12T15:53:15.280Z,98181.68
2018-02-12T15:55:43.584Z,98180.75
2018-02-12T15:58:11.891Z,98189.20
2018-02-12T16:00:40.268Z,98188.98
2018-02-12T16:03:08.599Z,98191.91
2018-02-12T16:05:36.912Z,98189.09
2018-02-12T16:08:05.278Z,98193.56
2018-02-12T16:10:33.583Z,98193.42
2018-02-12T16:13:02.672Z,98193.84
2018-02-12T16:15:31.861Z,98191.59
2018-02-12T16:18:00.195Z,98196.27
2018-02-12T16:20:28.500Z,98200.39
2018-02-12T16:22:56.870Z,98200.83
2018-02-12T16:25:25.177Z,98201.71
2018-02-12T16:27:53.488Z,98196.45
2018-02-12T16:30:21.852Z,98196.23
2018-02-12T16:32:50.156Z,98202.69
2018-02-12T16:35:18.459Z,98203.66
2018-02-12T16:37:46.822Z,98201.08
2018-02-12T16:40:15.131Z,98199.86
2018-02-12T16:42:43.440Z,98202.98
2018-02-12T16:45:11.806Z,98208.75
2018-02-12T16:47:40.126Z,98213.76
2018-02-12T16:50:08.482Z,98215.94
2018-02-12T16:52:36.899Z,98216.77
2018-02-12T16:55:05.195Z,98219.80
2018-02-12T16:57:33.503Z,98223.47
2018-02-12T17:00:02.639Z,98227.31
2018-02-12T17:02:30.951Z,98233.72
2018-02-12T17:04:59.269Z,98236.80
2018-02-12T17:07:27.604Z,98242.50
2018-02-12T17:09:55.919Z,98244.11
2018-02-12T17:12:24.235Z,98246.30
2018-02-12T17:14:52.582Z,98253.58
2018-02-12T17:17:20.885Z,98252.78
2018-02-12T17:19:49.203Z,98259.09
2018-02-12T17:22:17.531Z,98253.14
2018-02-12T17:24:45.848Z,98266.58
2018-02-12T17:27:14.235Z,98275.76
2018-02-12T17:29:42.550Z,98273.11
2018-02-12T17:32:10.868Z,98266.20
2018-02-12T17:34:39.312Z,98265.23
2018-02-12T17:37:07.611Z,98265.45
2018-02-12T17:39:35.915Z,98265.13
2018-02-12T17:42:04.264Z,98262.97
2018-02-12T17:44:32.576Z,98258.45
2018-02-12T17:47:00.932Z,98261.03
2018-02-12T17:49:29.276Z,98262.87
2018-02-12T17:51:57.573Z,98272.73
2018-02-12T17:54:25.947Z,98277.04
2018-02-12T17:56:54.264Z,98280.92
2018-02-12T17:59:22.578Z,98281.36
2018-02-12T18:01:50.939Z,98285.78
2018-02-12T18:04:20.020Z,98281.48
2018-02-12T18:06:48.340Z,98283.99
2018-02-12T18:09:16.795Z,98284.62
2018-02-12T18:11:45.879Z,98288.83
2018-02-12T18:14:14.187Z,98294.50
2018-02-12T18:16:42.576Z,98296.90
2018-02-12T18:19:10.895Z,98297.39
2018-02-12T18:21:39.208Z,98303.25
2018-02-12T18:24:08.440Z,98298.54
2018-02-12T18:26:36.795Z,98298.22
2018-02-12T18:29:05.444Z,98297.41
2018-02-12T18:31:33.803Z,98303.77
2018-02-12T18:34:02.125Z,98308.08
2018-02-12T18:36:30.464Z,98307.86
2018-02-12T18:38:58.847Z,98315.70
2018-02-12T18:41:27.160Z,98313.73
2018-02-12T18:43:55.500Z,98314.17
2018-02-12T18:46:24.659Z,98319.41
2018-02-12T18:48:53.006Z,98319.95
2018-02-12T18:51:21.378Z,98322.61
2018-02-12T18:53:49.904Z,98322.48
2018-02-12T18:56:18.520Z,98330.99
2018-02-12T18:58:46.836Z,98326.05
2018-02-12T19:01:15.201Z,98331.98
2018-02-12T19:03:43.526Z,98332.49
2018-02-12T19:06:11.850Z,98324.63
2018-02-12T19:08:40.212Z,98329.47
2018-02-12T19:11:08.529Z,98330.26
2018-02-12T19:13:36.872Z,98328.61
2018-02-12T19:16:05.184Z,98333.87
2018-02-12T19:18:33.499Z,98330.87
2018-02-12T19:21:01.863Z,98338.48
2018-02-12T19:23:30.172Z,98336.11
2018-02-12T19:25:58.488Z,98332.28
2018-02-12T19:28:27.619Z,98334.08
2018-02-12T19:30:55.927Z,98336.52
2018-02-12T19:33:24.247Z,98336.17
2018-02-12T19:35:52.608Z,98342.61
2018-02-12T19:38:21.680Z,98343.77
2018-02-12T19:40:49.995Z,98341.67
2018-02-12T19:43:19.120Z,98342.30
2018-02-12T19:45:47.446Z,98337.86
2018-02-12T19:48:15.801Z,98341.95
2018-02-12T19:50:44.954Z,98343.17
2018-02-12T19:53:13.272Z,98348.88
2018-02-12T19:55:41.584Z,98353.43
2018-02-12T19:58:09.976Z,98354.55
2018-02-12T20:00:38.294Z,98353.38
2018-02-12T20:03:07.073Z,98355.97
2018-02-12T20:05:35.435Z,98359.20
2018-02-12T20:08:04.507Z,98361.48
2018-02-12T20:10:33.631Z,98365.50
2018-02-12T20:13:03.035Z,98360.97
2018-02-12T20:15:31.364Z,98367.70
2018-02-12T20:17:59.671Z,98372.09
2018-02-12T20:20:28.043Z,98371.73
2018-02-12T20:22:56.356Z,98368.23
2018-02-12T20:25:24.673Z,98373.97
2018-02-12T20:27:53.418Z,98375.55
2018-02-12T20:30:21.744Z,98371.79
2018-02-12T20:32:50.137Z,98374.50
2018-02-12T20:35:19.267Z,98373.11
2018-02-12T20:37:47.594Z,98374.44
2018-02-12T20:40:15.935Z,98374.69
2018-02-12T20:42:44.299Z,98372.95
2018-02-12T20:45:12.620Z,98374.10
2018-02-12T20:47:40.940Z,98374.31
2018-02-12T20:50:09.287Z,98376.25
2018-02-12T20:52:37.607Z,98371.23
2018-02-12T20:55:05.949Z,98372.22
2018-02-12T20:57:34.320Z,98379.89
2018-02-12T21:00:02.644Z,98382.70
2018-02-12T21:02:30.972Z,98382.71
2018-02-12T21:04:59.863Z,98387.13
2018-02-12T21:07:28.184Z,98392.75
2018-02-12T21:09:56.511Z,98391.58
2018-02-12T21:12:24.868Z,98390.84
2018-02-12T21:14:53.226Z,98400.50
2018-02-12T21:17:21.538Z,98394.05
2018-02-12T21:19:49.892Z,98398.41
2018-02-12T21:22:18.216Z,98398.17
2018-02-12T21:24:46.545Z,98398.22
2018-02-12T21:27:14.928Z,98405.05
2018-02-12T21:29:43.251Z,98403.31
2018-02-12T21:32:11.591Z,98404.22
2018-02-12T21:34:40.317Z,98402.11
2018-02-12T21:37:09.400Z,98398.14
2018-02-12T21:39:37.721Z,98401.81
2018-02-12T21:42:06.109Z,98396.73
2018-02-12T21:44:34.453Z,98397.80
2018-02-12T21:47:03.553Z,98397.53
2018-02-12T21:49:32.693Z,98393.56
2018-02-12T21:52:01.013Z,98397.07
2018-02-12T21:54:29.340Z,98408.22
2018-02-12T21:56:57.920Z,98404.30
2018-02-12T21:59:26.252Z,98404.80
2018-02-12T22:01:54.572Z,98406.78
2018-02-12T22:04:22.956Z,98401.05
2018-02-12T22:06:51.279Z,98394.44
2018-02-12T22:09:19.614Z,98405.14
2018-02-12T22:11:47.975Z,98395.51
2018-02-12T22:14:16.304Z,98398.92
2018-02-12T22:16:44.631Z,98401.45
2018-02-12T22:19:12.972Z,98397.06
2018-02-12T22:21:41.296Z,98399.91
2018-02-12T22:24:10.424Z,98402.60
2018-02-12T22:26:38.755Z,98403.66
2018-02-12T22:29:07.132Z,98400.08
2018-02-12T22:31:36.218Z,98405.82
2018-02-12T22:34:05.291Z,98400.49
2018-02-12T22:36:33.595Z,98401.62
2018-02-12T22:39:03.116Z,98400.49
2018-02-12T22:41:31.424Z,98400.44
2018-02-12T22:43:59.736Z,98402.02
2018-02-12T22:46:28.116Z,98402.66
2018-02-12T22:48:57.207Z,98399.03
2018-02-12T22:51:25.515Z,98398.16
2018-02-12T22:53:54.630Z,98398.24
2018-02-12T22:56:22.943Z,98403.06
2018-02-12T22:58:51.312Z,98398.33
2018-02-12T23:01:19.651Z,98404.20
2018-02-12T23:03:47.968Z,98399.80
2018-02-12T23:06:16.620Z,98396.81
2018-02-12T23:08:44.940Z,98404.58
2018-02-12T23:11:13.255Z,98403.22
2018-02-12T23:13:41.599Z,98401.94
2018-02-12T23:16:09.920Z,98398.27
2018-02-12T23:18:38.237Z,98402.52
2018-02-12T23:21:06.623Z,98404.30
2018-02-12T23:23:35.726Z,98400.70
2018-02-12T23:26:04.044Z,98403.57
2018-02-12T23:28:32.391Z,98401.14
2018-02-12T23:31:00.699Z,98400.05
2018-02-12T23:33:29.309Z,98405.16
2018-02-12T23:35:57.675Z,98408.93
2018-02-12T23:38:25.989Z,98405.11
2018-02-12T23:40:54.307Z,98412.91
2018-02-12T23:43:23.558Z,98403.45
2018-02-12T23:45:51.903Z,98403.06
2018-02-12T23:48:20.227Z,98403.55
2018-02-12T23:50:48.605Z,98404.41
2018-02-12T23:53:16.920Z,98407.23
2018-02-12T23:55:46.004Z,98407.13
2018-02-12T23:58:15.111Z,98410.48
